Time;durP1;ratioP1;P1;durP2;ratioP2;P2;SDS_P1;SDS_P2;PMS_P1;PMS_P2;Temp;Humidity;BMP_temperature;BMP_pressure;BME280_temperature;BME280_humidity;BME280_pressure;Samples;Min_cycle;Max_cycle;Signal;HPM_P1;HPM_P2
2021/03/14 00:00:45;;;;;;;19.53;17.43;;;;;;;4.15;71.68;99812.71;1715050;82;21265;-82
2021/03/14 00:03:16;;;;;;;20.30;15.13;;;;;;;4.07;71.86;99806.41;1716013;82;21171;-80
2021/03/14 00:05:47;;;;;;;18.73;15.70;;;;;;;4.02;72.03;99807.38;1699223;82;21805;-83
2021/03/14 00:08:17;;;;;;;20.63;15.83;;;;;;;4.09;71.89;99806.26;1656704;85;21210;-80
2021/03/14 00:10:51;;;;;;;17.57;14.53;;;;;;;4.18;71.58;99815.01;1716476;82;21357;-81
2021/03/14 00:13:24;;;;;;;18.67;15.50;;;;;;;4.14;71.60;99803.95;1716288;82;21095;-80
2021/03/14 00:15:52;;;;;;;17.73;15.43;;;;;;;4.07;71.79;99794.55;1711847;83;21296;-81
2021/03/14 00:18:23;;;;;;;19.60;16.43;;;;;;;4.04;71.88;99790.89;1686639;84;21229;-81
2021/03/14 00:20:51;;;;;;;17.80;15.20;;;;;;;4.00;72.11;99793.52;1699693;83;21329;-83
2021/03/14 00:23:18;;;;;;;19.00;15.20;;;;;;;3.43;71.76;99691.32;1699199;83;21273;-82
2021/03/14 00:25:45;;;;;;;19.53;16.17;;;;;;;4.12;71.68;99791.91;1706433;84;21420;-80
2021/03/14 00:28:41;;;;;;;18.17;15.50;;;;;;;4.03;72.00;99791.90;1774568;78;22695;-82
2021/03/14 00:31:08;;;;;;;19.43;15.10;;;;;;;3.89;72.29;99799.08;1749390;80;21642;-81
2021/03/14 00:33:35;;;;;;;20.23;16.13;;;;;;;3.86;72.42;99783.56;1733665;80;21107;-80
2021/03/14 00:36:03;;;;;;;20.30;14.87;;;;;;;3.90;72.00;99772.56;1660364;84;21702;-82
2021/03/14 00:38:31;;;;;;;18.80;16.40;;;;;;;3.95;72.08;99783.12;1651909;84;21235;-80
2021/03/14 00:40:58;;;;;;;16.10;14.40;;;;;;;3.92;72.18;99784.74;1661685;84;21227;-80
2021/03/14 00:43:25;;;;;;;18.83;16.07;;;;;;;3.88;72.25;99786.87;1656301;84;21238;-79
2021/03/14 00:45:52;;;;;;;15.87;14.00;;;;;;;3.86;72.25;99796.28;1626860;86;21446;-84
2021/03/14 00:48:21;;;;;;;15.57;13.83;;;;;;;3.92;72.20;99795.29;1638223;85;21201;-82
2021/03/14 00:50:51;;;;;;;17.33;14.13;;;;;;;4.00;71.92;99789.56;1635951;86;21230;-81
2021/03/14 00:53:19;;;;;;;20.57;15.43;;;;;;;3.94;71.99;99790.22;1627151;85;21905;-81
2021/03/14 00:55:49;;;;;;;19.17;14.77;;;;;;;3.81;72.36;99778.78;1662668;84;21345;-81
2021/03/14 00:58:16;;;;;;;15.00;13.20;;;;;;;3.75;72.63;99783.84;1627955;86;21620;-82
2021/03/14 01:00:43;;;;;;;15.47;13.70;;;;;;;3.79;72.48;99782.07;1675251;84;21100;-81
2021/03/14 01:03:12;;;;;;;18.00;15.17;;;;;;;3.87;72.26;99785.23;1671537;84;21240;-81
2021/03/14 01:05:40;;;;;;;18.43;15.47;;;;;;;3.75;72.54;99782.06;1665843;84;21796;-82
2021/03/14 01:08:08;;;;;;;17.47;13.97;;;;;;;3.62;72.91;99774.58;1661300;84;21180;-82
2021/03/14 01:10:36;;;;;;;16.10;14.40;;;;;;;3.65;72.90;99768.16;1670700;84;21252;-81
2021/03/14 01:13:04;;;;;;;18.33;14.67;;;;;;;3.73;72.67;99780.55;1687657;83;21138;-81
2021/03/14 01:15:31;;;;;;;20.37;16.77;;;;;;;3.67;72.71;99775.41;1688436;83;21713;-82
2021/03/14 01:17:58;;;;;;;16.33;14.17;;;;;;;3.59;72.99;99777.52;1681310;83;21387;-82
2021/03/14 01:20:25;;;;;;;17.03;13.43;;;;;;;3.56;73.12;99773.89;1687574;83;21154;-81
2021/03/14 01:22:53;;;;;;;16.60;13.90;;;;;;;3.63;72.83;99776.21;1686395;83;21246;-81
2021/03/14 01:25:20;;;;;;;18.17;14.97;;;;;;;3.61;72.88;99771.59;1710266;81;21276;-81
2021/03/14 01:27:50;;;;;;;17.33;14.37;;;;;;;3.52;73.10;99772.53;1711823;82;21633;-80
2021/03/14 01:30:19;;;;;;;17.73;13.90;;;;;;;3.49;73.20;99774.18;1715897;82;21211;-81
2021/03/14 01:32:47;;;;;;;19.03;14.33;;;;;;;3.59;73.03;99784.61;1714805;83;21167;-81
2021/03/14 01:35:16;;;;;;;15.60;12.27;;;;;;;3.57;73.03;99779.48;1686797;83;21218;-80
2021/03/14 01:37:44;;;;;;;20.50;15.73;;;;;;;3.50;73.21;99770.55;1690838;83;21211;-80
2021/03/14 01:40:16;;;;;;;16.73;14.40;;;;;;;3.43;73.38;99772.17;1690910;83;21329;-81
2021/03/14 01:42:43;;;;;;;15.87;14.17;;;;;;;3.45;73.38;99765.76;1689312;84;21203;-81
2021/03/14 01:45:13;;;;;;;17.00;14.20;;;;;;;3.53;73.17;99762.34;1702500;83;21108;-81
2021/03/14 01:47:44;;;;;;;18.90;15.07;;;;;;;3.45;73.33;99762.30;1680247;83;21942;-80
2021/03/14 01:50:25;;;;;;;17.03;14.80;;;;;;;3.39;73.54;99756.32;1680418;84;21769;-80
2021/03/14 01:52:53;;;;;;;22.80;14.97;;;;;;;3.39;73.53;99760.27;1692664;83;21183;-80
2021/03/14 01:55:23;;;;;;;19.27;15.17;;;;;;;3.47;73.40;99763.79;1666983;84;21352;-80
2021/03/14 01:57:53;;;;;;;18.83;15.00;;;;;;;3.41;73.49;99768.84;1651483;84;21223;-82
2021/03/14 02:00:24;;;;;;;16.70;13.63;;;;;;;3.27;73.94;99764.48;1646246;84;21199;-79
2021/03/14 02:02:52;;;;;;;17.07;14.80;;;;;;;3.27;74.00;99763.67;1670522;84;21183;-81
2021/03/14 02:05:21;;;;;;;19.23;15.27;;;;;;;2.97;73.71;99702.58;1673863;84;21210;-81
2021/03/14 02:07:51;;;;;;;18.07;16.13;;;;;;;3.28;73.82;99767.47;1673913;84;21354;-80
2021/03/14 02:10:26;;;;;;;17.03;15.23;;;;;;;3.21;73.98;99765.11;1677724;84;21361;-81
2021/03/14 02:13:34;;;;;;;16.63;14.30;;;;;;;3.20;74.20;99763.48;1723410;79;23643;-81
2021/03/14 02:16:18;;;;;;;16.77;14.00;;;;;;;3.25;73.89;99770.91;1664432;84;21430;-80
2021/03/14 02:18:51;;;;;;;17.77;15.90;;;;;;;3.22;73.90;99768.56;1634878;85;21855;-80
2021/03/14 02:21:21;;;;;;;15.73;13.97;;;;;;;3.10;74.39;99783.30;1629107;85;21644;-81
2021/03/14 02:24:02;;;;;;;16.63;13.60;;;;;;;3.07;74.47;99777.52;1648048;84;21323;-81
2021/03/14 02:26:46;;;;;;;15.87;13.33;;;;;;;3.18;74.12;99780.39;1602327;87;21680;-81
2021/03/14 02:29:17;;;;;;;16.77;13.57;;;;;;;3.19;74.05;99787.33;1653768;85;21314;-81
2021/03/14 02:31:48;;;;;;;16.27;14.57;;;;;;;3.11;74.22;99782.34;1602216;87;21259;-82
2021/03/14 02:34:24;;;;;;;15.53;13.33;;;;;;;3.07;74.40;99784.09;1620232;85;21160;-82
2021/03/14 02:36:53;;;;;;;14.97;13.30;;;;;;;3.05;74.41;99783.42;1650088;85;21813;-80
2021/03/14 02:39:24;;;;;;;15.30;13.03;;;;;;;3.15;74.29;99785.49;1628706;85;21208;-81
2021/03/14 02:41:57;;;;;;;16.30;14.53;;;;;;;3.06;74.49;99770.11;1641829;85;21220;-81
2021/03/14 02:44:35;;;;;;;18.90;14.30;;;;;;;2.95;74.86;99769.54;1637580;85;21151;-81
2021/03/14 02:47:04;;;;;;;17.67;13.10;;;;;;;2.83;75.27;99776.36;1667666;84;21227;-80
2021/03/14 02:49:35;;;;;;;15.70;13.40;;;;;;;2.88;75.27;99778.05;1663202;84;21192;-80
2021/03/14 02:52:05;;;;;;;20.93;15.00;;;;;;;2.85;75.34;99775.72;1658056;85;21362;-81
2021/03/14 02:54:37;;;;;;;18.00;14.67;;;;;;;2.75;75.78;99784.20;1660733;84;21171;-81
2021/03/14 02:57:05;;;;;;;17.03;14.37;;;;;;;2.75;75.82;99778.08;1622829;84;21084;-80
2021/03/14 02:59:34;;;;;;;16.13;14.43;;;;;;;2.77;75.88;99773.49;1616854;86;21180;-80
2021/03/14 03:02:03;;;;;;;17.53;14.27;;;;;;;2.72;75.96;99772.64;1619043;87;21041;-81
2021/03/14 03:04:31;;;;;;;18.80;14.87;;;;;;;2.62;76.36;99773.20;1610261;87;21314;-79
2021/03/14 03:06:59;;;;;;;18.60;15.40;;;;;;;2.64;76.45;99776.03;1615030;88;21270;-79
2021/03/14 03:09:26;;;;;;;19.07;16.97;;;;;;;2.68;76.47;99785.77;1608492;87;22440;-79
2021/03/14 03:11:56;;;;;;;21.17;16.33;;;;;;;2.61;76.57;99780.77;1610995;87;21317;-81
2021/03/14 03:14:27;;;;;;;23.53;17.37;;;;;;;2.55;76.80;99782.20;1573719;89;21200;-81
2021/03/14 03:16:58;;;;;;;21.93;17.33;;;;;;;2.58;76.91;99770.53;1587608;88;22106;-80
2021/03/14 03:19:27;;;;;;;23.97;18.73;;;;;;;2.65;76.70;99784.75;1598112;89;21208;-80
2021/03/14 03:21:54;;;;;;;26.63;19.20;;;;;;;2.61;76.81;99773.69;1576347;89;21208;-80
2021/03/14 03:24:21;;;;;;;29.20;19.80;;;;;;;2.57;77.06;99776.79;1589302;88;21536;-81
2021/03/14 03:26:50;;;;;;;28.20;20.43;;;;;;;2.48;77.52;99781.95;1607041;88;21953;-82
2021/03/14 03:29:18;;;;;;;28.37;21.47;;;;;;;2.62;77.15;99792.46;1585568;88;21172;-80
2021/03/14 03:31:47;;;;;;;28.30;21.03;;;;;;;2.62;77.15;99788.98;1594683;88;21196;-80
2021/03/14 03:34:15;;;;;;;30.60;23.27;;;;;;;2.56;77.44;99779.06;1612605;87;21081;-80
2021/03/14 03:36:44;;;;;;;31.07;22.67;;;;;;;2.47;77.77;99773.73;1615666;87;21193;-80
2021/03/14 03:39:13;;;;;;;31.13;22.60;;;;;;;2.57;77.53;99780.23;1620837;87;21220;-81
2021/03/14 03:41:54;;;;;;;31.10;24.47;;;;;;;2.57;77.60;99774.16;1636861;86;21248;-81
2021/03/14 03:44:23;;;;;;;31.80;21.43;;;;;;;2.52;77.68;99768.86;1630015;86;21618;-80
2021/03/14 03:46:57;;;;;;;36.83;24.87;;;;;;;2.44;78.12;99772.71;1629830;86;21408;-81
2021/03/14 03:49:31;;;;;;;32.90;25.13;;;;;;;2.41;78.39;99775.66;1634175;86;21604;-80
2021/03/14 03:52:00;;;;;;;30.50;23.13;;;;;;;2.52;77.93;99775.44;1641041;86;21208;-79
2021/03/14 03:54:33;;;;;;;34.50;23.50;;;;;;;2.49;78.01;99753.37;1640244;86;21898;-82
2021/03/14 03:57:01;;;;;;;30.43;22.80;;;;;;;2.38;78.41;99754.91;1636159;86;21053;-81
2021/03/14 03:59:31;;;;;;;32.43;22.30;;;;;;;2.42;78.33;99749.68;1636265;86;21184;-80
2021/03/14 04:02:00;;;;;;;32.53;24.70;;;;;;;2.50;78.06;99743.16;1629761;86;21172;-82
2021/03/14 04:04:29;;;;;;;34.73;23.30;;;;;;;2.50;77.97;99751.06;1623425;84;21228;-81
2021/03/14 04:06:57;;;;;;;34.80;21.83;;;;;;;2.41;78.28;99748.51;1618139;86;21207;-81
2021/03/14 04:09:25;;;;;;;35.97;25.77;;;;;;;2.34;78.55;99738.59;1634269;86;21808;-81
2021/03/14 04:11:54;;;;;;;29.83;22.20;;;;;;;2.41;78.21;99748.05;1634470;86;21137;-79
2021/03/14 04:14:22;;;;;;;32.10;21.57;;;;;;;2.43;78.25;99753.98;1636671;87;21469;-81
2021/03/14 04:16:51;;;;;;;31.80;22.93;;;;;;;2.39;78.37;99749.97;1634896;86;21177;-81
2021/03/14 04:19:24;;;;;;;32.57;22.73;;;;;;;2.37;78.43;99751.10;1635086;86;21232;-80
2021/03/14 04:21:54;;;;;;;34.70;24.40;;;;;;;2.45;78.18;99746.76;1631848;86;21201;-80
2021/03/14 04:24:23;;;;;;;35.00;24.27;;;;;;;2.43;78.17;99744.77;1622211;86;21230;-81
2021/03/14 04:26:53;;;;;;;32.83;22.33;;;;;;;2.34;78.44;99736.46;1633051;86;21394;-80
2021/03/14 04:29:22;;;;;;;32.80;21.40;;;;;;;2.42;78.29;99749.68;1621367;86;21374;-80
2021/03/14 04:31:51;;;;;;;28.03;21.23;;;;;;;2.46;78.06;99743.13;1635738;86;21256;-80
2021/03/14 04:34:20;;;;;;;32.27;22.37;;;;;;;2.39;78.24;99737.31;1636586;86;21057;-80
2021/03/14 04:36:48;;;;;;;26.97;20.97;;;;;;;2.33;78.46;99738.24;1630180;86;21193;-80
2021/03/14 04:39:15;;;;;;;30.47;20.30;;;;;;;2.36;78.36;99735.82;1602888;88;21237;-80
2021/03/14 04:41:45;;;;;;;30.90;23.30;;;;;;;2.39;78.29;99741.26;1619114;87;21539;-80
2021/03/14 04:44:14;;;;;;;28.80;20.60;;;;;;;2.33;78.36;99742.19;1611204;87;21221;-80
2021/03/14 04:46:43;;;;;;;30.93;21.07;;;;;;;2.30;78.52;99743.00;1629423;86;21201;-82
2021/03/14 04:49:12;;;;;;;29.70;20.20;;;;;;;2.43;78.14;99750.03;1630550;86;21200;-80
2021/03/14 04:51:43;;;;;;;31.73;21.57;;;;;;;2.50;77.89;99761.58;1614535;87;21233;-80
2021/03/14 04:54:14;;;;;;;27.87;20.23;;;;;;;2.44;77.89;99755.61;1635298;86;21323;-81
2021/03/14 04:56:42;;;;;;;28.50;19.97;;;;;;;2.40;78.06;99770.05;1627614;86;21084;-81
2021/03/14 04:59:13;;;;;;;27.53;21.57;;;;;;;2.41;78.04;99757.25;1628551;86;21174;-81
2021/03/14 05:01:44;;;;;;;26.90;19.77;;;;;;;2.49;77.77;99761.76;1630255;86;21152;-80
2021/03/14 05:04:16;;;;;;;27.07;20.93;;;;;;;2.46;77.68;99760.23;1631801;86;21173;-80
2021/03/14 05:06:44;;;;;;;24.10;18.00;;;;;;;2.39;77.89;99755.72;1632471;86;21212;-82
2021/03/14 05:09:16;;;;;;;25.03;18.63;;;;;;;2.40;77.86;99756.89;1596063;88;21178;-80
2021/03/14 05:11:46;;;;;;;25.83;18.80;;;;;;;2.46;77.60;99764.67;1590089;88;21068;-80
2021/03/14 05:14:14;;;;;;;24.33;18.77;;;;;;;2.40;77.63;99754.77;1600481;88;21177;-80
2021/03/14 05:16:43;;;;;;;23.63;17.37;;;;;;;2.36;77.79;99759.98;1597582;88;21199;-80
2021/03/14 05:19:11;;;;;;;22.63;16.90;;;;;;;2.36;77.85;99756.05;1590798;89;21210;-80
2021/03/14 05:21:42;;;;;;;21.97;16.97;;;;;;;2.45;77.49;99763.86;1579000;89;21202;-83
2021/03/14 05:24:12;;;;;;;23.87;18.83;;;;;;;2.41;77.51;99773.03;1613907;88;21655;-82
2021/03/14 05:26:42;;;;;;;19.73;16.17;;;;;;;2.33;77.71;99763.72;1612642;87;21203;-80
2021/03/14 05:29:14;;;;;;;20.43;15.80;;;;;;;2.35;77.76;99756.51;1626510;86;21662;-82
2021/03/14 05:31:41;;;;;;;20.63;13.47;;;;;;;2.45;77.42;99766.95;1608672;87;21246;-80
2021/03/14 05:34:15;;;;;;;19.90;15.87;;;;;;;2.48;77.31;99774.56;1586118;88;21108;-80
2021/03/14 05:36:44;;;;;;;21.67;15.23;;;;;;;2.39;77.51;99774.95;1541239;91;21499;-80
2021/03/14 05:39:12;;;;;;;18.73;14.07;;;;;;;2.33;77.71;99776.88;1548192;91;21769;-81
2021/03/14 05:41:40;;;;;;;16.13;13.83;;;;;;;2.40;77.48;99765.28;1565727;90;21183;-81
2021/03/14 05:44:10;;;;;;;18.33;14.13;;;;;;;2.46;77.31;99779.14;1552590;91;21230;-80
2021/03/14 05:46:38;;;;;;;16.47;14.47;;;;;;;2.38;77.61;99779.89;1574793;90;21618;-82
2021/03/14 05:49:07;;;;;;;15.40;12.87;;;;;;;2.35;77.71;99767.03;1561612;90;21194;-80
2021/03/14 05:51:43;;;;;;;15.47;11.53;;;;;;;2.47;77.40;99767.16;1565453;89;21673;-82
2021/03/14 05:54:15;;;;;;;15.10;12.97;;;;;;;2.43;77.37;99768.91;1576043;90;21643;-81
2021/03/14 05:56:48;;;;;;;18.00;13.40;;;;;;;2.40;77.55;99770.55;1580184;89;21281;-82
2021/03/14 05:59:18;;;;;;;16.13;12.77;;;;;;;2.44;77.61;99781.92;1592231;89;21224;-78
2021/03/14 06:01:52;;;;;;;15.37;13.60;;;;;;;2.50;77.36;99774.73;1555057;89;21114;-81
2021/03/14 06:04:19;;;;;;;16.73;13.13;;;;;;;2.53;77.23;99776.27;1562941;90;21551;-80
2021/03/14 06:06:47;;;;;;;16.47;13.37;;;;;;;2.47;77.48;99769.80;1546240;90;21214;-80
2021/03/14 06:09:17;;;;;;;14.23;12.60;;;;;;;2.57;77.36;99772.34;1554742;90;21213;-80
2021/03/14 06:11:44;;;;;;;13.63;12.07;;;;;;;2.71;76.92;99773.14;1567215;88;21587;-81
2021/03/14 06:14:12;;;;;;;13.63;11.87;;;;;;;2.31;76.74;99707.32;1588594;89;21441;-80
2021/03/14 06:16:40;;;;;;;12.97;11.50;;;;;;;2.74;76.69;99769.38;1598466;88;21196;-83
2021/03/14 06:19:08;;;;;;;15.03;13.37;;;;;;;2.75;76.39;99763.61;1572426;89;21263;-82
2021/03/14 06:21:35;;;;;;;12.20;10.90;;;;;;;2.60;76.07;99713.32;1593228;88;21386;-81
2021/03/14 06:24:07;;;;;;;13.13;11.80;;;;;;;2.87;75.98;99746.61;1610232;87;21101;-81
2021/03/14 06:26:44;;;;;;;11.67;10.47;;;;;;;2.79;76.21;99748.70;1608520;87;21212;-81
2021/03/14 06:29:21;;;;;;;11.77;9.97;;;;;;;2.78;76.08;99748.84;1611475;87;21358;-81
2021/03/14 06:32:01;;;;;;;13.10;11.00;;;;;;;2.87;75.78;99753.19;1606784;87;21208;-81
2021/03/14 06:34:33;;;;;;;13.37;10.90;;;;;;;2.89;75.75;99753.36;1606731;87;21650;-81
2021/03/14 06:37:15;;;;;;;13.17;11.07;;;;;;;2.86;75.83;99747.11;1616146;87;21712;-81
2021/03/14 06:39:45;;;;;;;13.50;12.10;;;;;;;2.90;75.91;99751.09;1612007;87;21187;-80
2021/03/14 06:42:34;;;;;;;12.17;10.73;;;;;;;3.01;75.75;99749.17;1616395;87;21208;-83
2021/03/14 06:45:13;;;;;;;;;;;;;;;3.05;75.47;99751.83;1603713;87;21053;-80
2021/03/14 06:47:47;;;;;;;11.57;9.87;;;;;;;3.08;75.45;99743.63;1619873;87;20215;-81
2021/03/14 06:50:40;;;;;;;12.80;9.47;;;;;;;3.21;74.85;99751.95;1604181;87;21654;-82
2021/03/14 06:53:12;;;;;;;11.60;9.40;;;;;;;3.27;74.40;99742.59;1608108;87;21334;-82
2021/03/14 06:55:42;;;;;;;11.40;10.17;;;;;;;3.25;74.41;99745.88;1596504;87;21126;-81
2021/03/14 06:58:36;;;;;;;12.10;9.90;;;;;;;3.32;74.41;99756.13;1601838;87;21651;-80
2021/03/14 07:01:18;;;;;;;11.87;10.27;;;;;;;3.42;73.95;99760.79;1606248;87;21622;-81
2021/03/14 07:03:51;;;;;;;12.87;10.80;;;;;;;3.42;73.96;99763.92;1602772;87;21342;-83
2021/03/14 07:06:28;;;;;;;10.90;9.40;;;;;;;3.44;74.03;99768.05;1616567;87;21626;-81
2021/03/14 07:09:08;;;;;;;10.28;9.28;;;;;;;3.57;73.50;99776.03;1606914;87;21238;-82
2021/03/14 07:11:43;;;;;;;10.63;9.30;;;;;;;3.62;73.38;99777.72;1610134;87;21218;-83
2021/03/14 07:14:16;;;;;;;11.37;10.00;;;;;;;3.51;73.73;99784.07;1614816;87;21666;-80
2021/03/14 07:16:55;;;;;;;9.23;8.33;;;;;;;3.53;73.46;99786.05;1594687;87;21869;-83
2021/03/14 07:19:29;;;;;;;9.43;8.43;;;;;;;3.67;73.32;99779.36;1613215;87;21192;-83
2021/03/14 07:22:11;;;;;;;12.20;11.00;;;;;;;3.74;73.04;99786.98;1599621;87;21354;-84
2021/03/14 07:24:42;;;;;;;11.10;9.23;;;;;;;3.82;72.93;99794.92;1611881;87;21690;-84
2021/03/14 07:27:15;;;;;;;9.80;8.80;;;;;;;3.90;72.82;99804.70;1594885;87;21205;-85
2021/03/14 07:29:44;;;;;;;10.23;9.17;;;;;;;4.06;72.04;99802.11;1610690;87;21168;-84
2021/03/14 07:32:11;;;;;;;11.33;9.17;;;;;;;4.03;71.97;99810.83;1600070;87;21301;-83
2021/03/14 07:34:38;;;;;;;9.13;8.23;;;;;;;3.98;71.91;99803.91;1634129;86;21063;-83
2021/03/14 07:37:05;;;;;;;;;;;;;;;3.49;72.17;99718.84;1621898;86;21821;-83
2021/03/14 07:53:09;;;;;;;13.07;10.47;;;;;;;4.24;71.82;99787.51;1770016;80;23023;-83
2021/03/14 07:56:00;;;;;;;12.57;9.77;;;;;;;4.21;71.90;99794.92;1793421;77;24193;-84
2021/03/14 07:58:30;;;;;;;10.83;9.10;;;;;;;4.23;71.67;99796.40;1733755;81;21280;-81
2021/03/14 08:01:03;;;;;;;11.00;8.73;;;;;;;4.33;71.41;99791.48;1731378;81;21104;-83
2021/03/14 08:03:38;;;;;;;9.57;8.57;;;;;;;4.45;71.04;99773.86;1797497;78;22560;-82
2021/03/14 08:06:05;;;;;;;10.70;9.40;;;;;;;4.49;70.73;99792.84;1715768;81;21440;-81
2021/03/14 08:08:41;;;;;;;9.20;8.17;;;;;;;4.56;70.58;99774.05;1719565;81;21494;-83
2021/03/14 08:11:24;;;;;;;9.23;7.97;;;;;;;4.68;69.83;99775.88;1686693;82;21228;-83
2021/03/14 08:13:51;;;;;;;9.17;8.27;;;;;;;4.76;69.38;99772.41;1668084;84;21948;-82
2021/03/14 08:16:18;;;;;;;10.73;9.33;;;;;;;4.62;69.67;99759.38;1646843;86;21169;-83
2021/03/14 08:18:48;;;;;;;8.93;7.90;;;;;;;4.56;70.06;99781.13;1640240;85;21218;-81
2021/03/14 08:21:27;;;;;;;9.53;8.30;;;;;;;4.61;70.16;99774.87;1670422;84;21746;-83
2021/03/14 08:24:04;;;;;;;9.90;9.10;;;;;;;4.81;69.75;99763.51;1725783;77;33849;-84
2021/03/14 08:26:36;;;;;;;8.47;7.67;;;;;;;5.01;69.07;99764.83;1706068;83;22321;-81
2021/03/14 08:29:13;;;;;;;7.83;7.13;;;;;;;5.20;68.25;99772.08;1698367;83;21209;-83
2021/03/14 08:31:46;;;;;;;8.53;7.73;;;;;;;5.13;68.60;99769.77;1704194;83;21191;-80
2021/03/14 08:34:33;;;;;;;8.07;7.33;;;;;;;5.03;68.26;99765.48;1713375;81;21214;-81
2021/03/14 08:37:07;;;;;;;9.93;8.93;;;;;;;5.09;68.47;99777.70;1731257;81;21195;-82
2021/03/14 08:39:36;;;;;;;8.60;7.80;;;;;;;5.01;68.74;99771.91;1727241;81;21194;-83
2021/03/14 08:42:18;;;;;;;8.70;7.97;;;;;;;4.99;68.90;99773.89;1806926;77;23110;-83
2021/03/14 08:44:47;;;;;;;8.40;7.60;;;;;;;4.98;69.06;99777.53;1796513;78;21077;-81
2021/03/14 08:47:27;;;;;;;10.03;8.43;;;;;;;5.13;68.79;99768.45;1798068;78;22984;-81
2021/03/14 08:50:04;;;;;;;9.13;7.37;;;;;;;5.23;68.15;99776.50;1764313;78;21208;-83
2021/03/14 08:52:35;;;;;;;8.33;7.57;;;;;;;5.09;68.12;99779.84;1765365;78;21908;-80
2021/03/14 08:55:07;;;;;;;7.97;7.20;;;;;;;5.01;68.79;99791.24;1767354;78;21214;-81
2021/03/14 08:57:35;;;;;;;6.63;6.03;;;;;;;4.99;68.80;99787.09;1720978;80;21623;-81
2021/03/14 09:00:10;;;;;;;7.20;5.77;;;;;;;5.13;68.44;99796.19;1753170;80;21208;-80
2021/03/14 09:06:31;;;;;;;9.03;8.13;;;;;;;5.03;68.74;99790.58;1831714;75;26708;-81
2021/03/14 09:09:08;;;;;;;10.23;8.37;;;;;;;4.93;69.29;99787.77;1796045;78;21623;-84
2021/03/14 09:11:50;;;;;;;7.57;6.77;;;;;;;4.98;68.92;99794.70;1767522;78;21111;-82
2021/03/14 09:14:43;;;;;;;8.27;7.27;;;;;;;5.08;68.57;99800.63;1707413;82;21788;-81
2021/03/14 09:17:22;;;;;;;8.30;6.93;;;;;;;5.04;68.79;99799.31;1708105;82;21232;-83
2021/03/14 09:19:53;;;;;;;8.17;7.47;;;;;;;4.91;69.07;99799.80;1733769;81;21349;-83
2021/03/14 09:22:26;;;;;;;8.33;7.60;;;;;;;4.88;69.30;99787.77;1739940;81;21326;-83
2021/03/14 09:25:08;;;;;;;8.60;7.73;;;;;;;4.99;69.13;99802.94;1774742;80;21313;-85
2021/03/14 09:27:44;;;;;;;6.70;6.10;;;;;;;4.95;69.32;99791.06;1764987;79;21205;-85
2021/03/14 09:30:17;;;;;;;9.03;8.13;;;;;;;4.94;69.43;99784.96;1708894;82;21773;-88
2021/03/14 09:32:50;;;;;;;6.83;6.23;;;;;;;4.99;69.25;99791.05;1765291;79;21678;-84
2021/03/14 09:35:32;;;;;;;;;;;;;;;5.00;69.34;99786.12;1734494;81;21211;-85
2021/03/14 09:40:51;;;;;;;11.40;7.37;;;;;;;5.12;68.80;99764.96;1775431;77;22981;-84
2021/03/14 09:43:28;;;;;;;11.03;8.57;;;;;;;5.14;68.48;99765.64;1771493;80;21242;-85
2021/03/14 09:46:07;;;;;;;8.80;7.90;;;;;;;5.21;68.42;99775.84;1716360;80;21530;-85
2021/03/14 09:48:36;;;;;;;8.90;8.07;;;;;;;5.35;67.95;99765.59;1717980;81;21458;-85
2021/03/14 09:51:07;;;;;;;9.40;7.47;;;;;;;5.46;67.74;99759.47;1744243;82;21215;-82
2021/03/14 09:53:39;;;;;;;9.50;8.50;;;;;;;5.14;67.52;99704.88;1744632;82;21140;-81
2021/03/14 09:56:10;;;;;;;8.43;7.57;;;;;;;5.46;67.48;99759.47;1715858;82;21112;-84
2021/03/14 09:59:03;;;;;;;9.53;8.03;;;;;;;5.46;67.65;99762.11;1717819;82;21423;-83
2021/03/14 10:01:36;;;;;;;8.93;8.03;;;;;;;5.45;67.78;99763.59;1715850;82;21256;-83
2021/03/14 10:04:09;;;;;;;8.87;7.97;;;;;;;5.57;67.35;99766.19;1720444;83;21207;-84
2021/03/14 10:06:46;;;;;;;9.00;8.20;;;;;;;5.57;67.76;99756.13;1719987;82;21207;-83
2021/03/14 10:16:52;;;;;;;6.77;6.13;;;;;;;5.64;66.13;99736.76;1584035;87;22039;-83
2021/03/14 10:19:35;;;;;;;9.10;7.73;;;;;;;5.82;65.87;99741.83;1730831;80;25000;-84
2021/03/14 10:25:51;;;;;;;11.30;9.53;;;;;;;5.59;65.93;99741.73;1639616;83;22044;-83
2021/03/14 10:28:40;;;;;;;10.17;9.17;;;;;;;5.49;66.73;99726.57;1792987;77;23462;-85
2021/03/14 10:31:21;;;;;;;9.40;8.50;;;;;;;5.29;66.80;99704.98;1761531;80;21169;-85
2021/03/14 10:33:50;;;;;;;11.57;10.37;;;;;;;5.50;66.75;99727.39;1743164;80;21314;-86
2021/03/14 10:36:18;;;;;;;11.37;10.17;;;;;;;5.58;66.71;99720.27;1707246;83;21183;-83
2021/03/14 10:38:59;;;;;;;11.07;9.67;;;;;;;5.62;66.61;99710.98;1816342;77;24226;-83
2021/03/14 10:41:33;;;;;;;10.77;9.63;;;;;;;5.61;66.76;99713.33;1799476;77;21416;-83
2021/03/14 10:44:02;;;;;;;11.80;10.60;;;;;;;5.66;66.62;99720.22;1810129;77;21598;-83
2021/03/14 10:46:46;;;;;;;12.20;10.90;;;;;;;5.69;66.42;99703.69;1751790;79;23168;-84
2021/03/14 10:49:19;;;;;;;10.73;9.17;;;;;;;5.77;66.12;99708.95;1717752;82;21173;-83
2021/03/14 10:51:55;;;;;;;13.17;10.83;;;;;;;5.82;66.15;99707.92;1688107;83;21192;-84
2021/03/14 10:54:37;;;;;;;11.03;9.83;;;;;;;5.81;66.45;99693.06;1710301;83;21741;-85
2021/03/14 10:57:18;;;;;;;15.47;11.97;;;;;;;5.81;66.40;99701.81;1663457;82;21347;-84
2021/03/14 10:59:47;;;;;;;13.23;10.50;;;;;;;4.30;66.13;99456.25;1661494;84;21733;-84
2021/03/14 11:02:40;;;;;;;12.30;11.00;;;;;;;5.79;66.15;99676.55;1700231;81;23149;-86
2021/03/14 11:05:07;;;;;;;15.10;11.30;;;;;;;5.80;66.02;99692.25;1631277;85;21846;-83
2021/03/14 11:07:37;;;;;;;18.33;11.33;;;;;;;5.75;65.79;99684.00;1667855;83;21696;-84
2021/03/14 11:10:36;;;;;;;13.87;10.77;;;;;;;5.73;65.97;99682.54;1766952;78;24241;-84
2021/03/14 11:13:15;;;;;;;14.03;11.17;;;;;;;5.59;66.21;99672.17;1665309;77;21436;-86
2021/03/14 11:15:46;;;;;;;16.60;12.03;;;;;;;4.48;66.40;99507.00;1645550;85;21274;-83
2021/03/14 11:18:24;;;;;;;14.07;11.80;;;;;;;5.58;66.43;99688.55;1651261;85;21671;-81
2021/03/14 11:21:20;;;;;;;16.90;12.07;;;;;;;5.47;66.99;99687.59;1772597;79;22955;-85
2021/03/14 11:23:50;;;;;;;14.97;12.37;;;;;;;5.23;67.74;99690.63;1677184;81;21144;-87
2021/03/14 11:26:19;;;;;;;13.97;11.50;;;;;;;5.31;67.66;99688.45;1647182;86;21191;-84
2021/03/14 11:28:50;;;;;;;14.43;12.03;;;;;;;5.46;67.33;99672.72;1648430;85;21241;-86
2021/03/14 11:34:29;;;;;;;13.13;11.73;;;;;;;4.66;67.28;99560.06;1774187;75;23576;-85
2021/03/14 11:37:15;;;;;;;15.03;12.50;;;;;;;5.31;67.36;99672.60;1724287;81;21231;-83
2021/03/14 11:39:52;;;;;;;14.50;13.28;;;;;;;5.35;67.69;99663.84;1822070;76;28030;-84
2021/03/14 11:42:21;;;;;;;13.47;11.33;;;;;;;5.53;67.05;99665.75;1853056;75;21104;-83
2021/03/14 11:45:10;;;;;;;14.87;13.30;;;;;;;5.68;66.58;99666.36;1782366;78;22928;-84
2021/03/14 11:47:44;;;;;;;17.53;13.17;;;;;;;5.57;67.13;99663.59;1748407;81;21671;-86
2021/03/14 11:50:29;;;;;;;14.27;11.60;;;;;;;5.53;67.25;99653.86;1738590;82;21292;-83
2021/03/14 11:53:01;;;;;;;14.63;12.90;;;;;;;5.16;67.09;99597.22;1746456;81;21700;-83
2021/03/14 11:55:35;;;;;;;15.77;12.33;;;;;;;5.74;66.95;99658.54;1751341;81;21757;-84
2021/03/14 11:58:04;;;;;;;16.57;12.13;;;;;;;5.74;66.63;99658.54;1757529;81;21653;-85
2021/03/14 12:00:32;;;;;;;14.40;11.17;;;;;;;5.69;66.67;99661.38;1766142;81;21070;-86
2021/03/14 12:03:04;;;;;;;17.33;12.83;;;;;;;5.68;66.93;99662.39;1767223;80;21216;-86
2021/03/14 12:05:43;;;;;;;15.93;14.43;;;;;;;5.65;66.91;99641.91;1773578;79;38791;-89
2021/03/14 12:08:22;;;;;;;14.43;11.90;;;;;;;5.78;66.70;99643.15;1706871;80;21164;-85
2021/03/14 12:10:51;;;;;;;18.00;13.53;;;;;;;5.95;66.14;99658.42;1755681;80;21157;-85
2021/03/14 12:13:19;;;;;;;16.43;12.80;;;;;;;5.77;66.46;99640.20;1683000;80;21399;-84
2021/03/14 12:15:51;;;;;;;15.90;12.47;;;;;;;5.65;67.03;99660.90;1661372;83;21252;-85
2021/03/14 12:18:19;;;;;;;16.07;13.37;;;;;;;5.14;67.38;99560.90;1683102;84;21340;-83
2021/03/14 12:20:48;;;;;;;15.97;14.27;;;;;;;5.82;66.94;99641.33;1681781;83;21240;-82
2021/03/14 12:23:17;;;;;;;15.70;13.27;;;;;;;5.82;66.77;99633.86;1682644;83;21269;-88
2021/03/14 12:25:46;;;;;;;14.80;13.10;;;;;;;5.79;66.93;99629.77;1678098;83;21213;-83
2021/03/14 12:28:16;;;;;;;19.37;14.53;;;;;;;5.74;67.09;99620.70;1675909;83;22493;-85